Portada
METAR-TAF:

METAR-TAF

Aeroports :

Singapur, Singapur

latitud: 01-25-08N, longitud: 103-51-57E, altitud: 11 m

Observació

L'informe es va fer fa 53 minuts, a les 00:00 UTC
Vent 1 kt amb direcció variable
Temperatura 26°C
Humitat 84%
Pressió 1009 hPa
Visibilitat 10 km o més
Escasses núvols a una alçada de 2200 ft
Cel ennuvolat a una alçada de 13000 ft

METAR: WSSL 260000Z VRB01KT 9999 FEW022 BKN130 26/23 Q1009

Hora: 08:53 (00:53 UTC)

Pronòstic

L'informe es va fer fa 1 hora i 53 minuts, a les 23:00 UTC
Pronòstic vàlid del 26 a les 00 UTC al 27 a les 06 UTC
Vent 6 kt del Nord/Nord-Est
Visibilitat 10 km o més
Escasses núvols a una alçada de 1500 ft
Núvols disperses a una alçada de 2000 ft
Temporalment
l' 26 a les 02 UTC al 26 a les 05 UTC
Visibilitat: 3000 m
Escasses núvols a una alçada de 1200 ft, Cumulonimbus.
Cel ennuvolat a una alçada de 1500 ft
tempesta, pluja

TAF: WSSL 252300Z 2600/2706 02006KT 9999 FEW015 SCT020 TEMPO 2602/2605 3000 TSRA FEW012CB BKN015

Observacions i pronòstics meteorològics de més de 4000 aeroports (METAR i TAF).

Les estacions disponibles són els punts grocs i vermells al mapa.

Posi el ratolí al punt desitjat per veure el nom de l'estació.

Feu clic per veure les observacions i els pronòstics meteorològics.

Per canviar el mapa: feu clic els botons verds amb una creu de color negre per apropar; al botó verd amb un guió per allunyar la imatge; o en les fletxes verdes per a mapes adjacents.


METAR-TAF: